Terminal Aerodrome Forecast
Issued by NWS

Home | Current Version | Previous Version | Text Only | Print | Product List | Glossary On
Versions: 1 2 3 4 5 6 7 8 9 10 11 12 13 14
000
FTUS44 KEPZ 281720
TAFLRU
TAF
KLRU 281720Z 2818/2918 11008KT P6SM FEW090 BKN150 BKN200
     FM290300 10008KT P6SM SCT060 BKN150 BKN200
     FM291400 12011KT P6SM BKN060 BKN120=

USA.gov is the U.S. government's official web portal to all federal, state and local government web resources and services.